Time;durP1;ratioP1;P1;durP2;ratioP2;P2;SDS_P1;SDS_P2;PMS_P1;PMS_P2;Temp;Humidity;BMP_temperature;BMP_pressure;BME280_temperature;BME280_humidity;BME280_pressure;Samples;Min_cycle;Max_cycle;Signal;HPM_P1;HPM_P2
2022/03/22 00:01:40;;;;;;;18.83;12.35;;;;;;;;;;5029763;28;20089;-60
2022/03/22 00:04:25;;;;;;;17.10;11.32;;;;;;;;;;5030953;28;20021;-60
2022/03/22 00:07:10;;;;;;;20.30;12.02;;;;;;;;;;5026711;28;20033;-61
2022/03/22 00:09:55;;;;;;;18.60;11.07;;;;;;;;;;5046561;28;20057;-62
2022/03/22 00:12:41;;;;;;;18.23;10.73;;;;;;;;;;5026610;28;20037;-64
2022/03/22 00:15:26;;;;;;;16.92;11.15;;;;;;;;;;5045828;28;20033;-63
2022/03/22 00:18:12;;;;;;;17.88;11.48;;;;;;;;;;5030109;28;20516;-63
2022/03/22 00:20:57;;;;;;;21.30;11.45;;;;;;;;;;5027800;28;20051;-63
2022/03/22 00:23:42;;;;;;;18.50;11.95;;;;;;;;;;5038801;28;20459;-62
2022/03/22 00:26:28;;;;;;;20.05;12.18;;;;;;;;;;5026034;28;20032;-61
2022/03/22 00:29:13;;;;;;;19.50;12.10;;;;;;;;;;5042922;28;20108;-60
2022/03/22 00:31:58;;;;;;;18.60;11.15;;;;;;;;;;5044711;28;20111;-65
2022/03/22 00:34:46;;;;;;;21.85;13.05;;;;;;;;;;5031063;28;20037;-65
2022/03/22 00:37:32;;;;;;;18.85;11.60;;;;;;;;;;5038424;28;20051;-64
2022/03/22 00:40:17;;;;;;;17.45;12.57;;;;;;;;;;5045282;28;20041;-65
2022/03/22 00:43:03;;;;;;;19.33;11.27;;;;;;;;;;5027646;28;20048;-64
2022/03/22 00:45:49;;;;;;;21.42;11.80;;;;;;;;;;5027004;28;20535;-62
2022/03/22 00:48:34;;;;;;;16.77;11.57;;;;;;;;;;5028385;28;20160;-63
2022/03/22 00:51:23;;;;;;;18.55;11.23;;;;;;;;;;5030023;28;20641;-62
2022/03/22 00:54:08;;;;;;;20.13;12.30;;;;;;;;;;5047111;28;20096;-65
2022/03/22 00:56:54;;;;;;;17.52;11.63;;;;;;;;;;5033575;28;20033;-63
2022/03/22 01:02:49;;;;;;;18.70;11.55;;;;;;;;;;5030397;28;20091;-62
2022/03/22 01:05:35;;;;;;;19.95;12.77;;;;;;;;;;5031755;28;20047;-62
2022/03/22 01:08:20;;;;;;;20.45;11.82;;;;;;;;;;5030760;28;20033;-60
2022/03/22 01:11:06;;;;;;;20.38;12.15;;;;;;;;;;5032190;28;20511;-59
2022/03/22 01:13:51;;;;;;;21.33;11.73;;;;;;;;;;5032034;28;20060;-60
2022/03/22 01:16:39;;;;;;;19.20;12.25;;;;;;;;;;5028158;28;20102;-63
2022/03/22 01:19:24;;;;;;;18.13;11.73;;;;;;;;;;5044263;28;20082;-60
2022/03/22 01:22:10;;;;;;;18.55;12.13;;;;;;;;;;5031444;28;20487;-60
2022/03/22 01:24:55;;;;;;;17.77;11.43;;;;;;;;;;5030662;28;20120;-64
2022/03/22 01:27:42;;;;;;;17.55;10.98;;;;;;;;;;5039545;28;20068;-63
2022/03/22 01:30:27;;;;;;;18.77;12.13;;;;;;;;;;5027257;28;20025;-63
2022/03/22 01:33:13;;;;;;;17.85;11.98;;;;;;;;;;5043609;28;20047;-63
2022/03/22 01:35:58;;;;;;;19.50;12.23;;;;;;;;;;5035197;28;20671;-62
2022/03/22 01:38:43;;;;;;;16.77;11.75;;;;;;;;;;5019806;28;20037;-61
2022/03/22 01:41:29;;;;;;;19.70;12.43;;;;;;;;;;5034354;28;20108;-62
2022/03/22 01:44:14;;;;;;;17.08;11.60;;;;;;;;;;5035341;28;20028;-59
2022/03/22 01:47:01;;;;;;;18.17;11.90;;;;;;;;;;5032959;28;20134;-58
2022/03/22 01:49:47;;;;;;;19.10;12.23;;;;;;;;;;5035865;28;20056;-60
2022/03/22 01:52:34;;;;;;;21.17;12.65;;;;;;;;;;5035858;28;20452;-61
2022/03/22 01:55:20;;;;;;;18.55;11.80;;;;;;;;;;5033831;28;20033;-59
2022/03/22 01:58:05;;;;;;;19.75;12.27;;;;;;;;;;5047818;28;20017;-62
2022/03/22 02:05:51;;;;;;;17.40;11.07;;;;;;;;;;5036936;28;20037;-60
2022/03/22 02:07:00;;;;;;;19.92;13.07;;;;;;;;;;5028119;28;20086;-62
2022/03/22 02:09:46;;;;;;;17.52;11.48;;;;;;;;;;5044007;28;20411;-63
2022/03/22 02:12:31;;;;;;;20.67;12.43;;;;;;;;;;5028479;28;20033;-64
2022/03/22 02:15:16;;;;;;;20.98;12.50;;;;;;;;;;5034678;28;20033;-61
2022/03/22 02:18:02;;;;;;;18.08;12.45;;;;;;;;;;5019806;28;20036;-63
2022/03/22 02:20:47;;;;;;;19.77;11.45;;;;;;;;;;5034949;28;20036;-59
2022/03/22 02:23:52;;;;;;;22.73;12.60;;;;;;;;;;5034157;28;20021;-58
2022/03/22 02:26:37;;;;;;;22.02;12.48;;;;;;;;;;5032079;28;20049;-60
2022/03/22 02:29:22;;;;;;;17.88;11.73;;;;;;;;;;5029270;28;20234;-60
2022/03/22 02:32:07;;;;;;;22.08;13.02;;;;;;;;;;5054076;28;20041;-59
2022/03/22 02:34:53;;;;;;;18.50;12.30;;;;;;;;;;5033242;28;20064;-58
2022/03/22 02:37:38;;;;;;;20.20;12.57;;;;;;;;;;5033039;28;20060;-64
2022/03/22 02:40:25;;;;;;;19.25;12.07;;;;;;;;;;5033273;28;20518;-64
2022/03/22 02:43:10;;;;;;;19.40;12.23;;;;;;;;;;5033021;28;20396;-61
2022/03/22 02:45:56;;;;;;;17.20;11.57;;;;;;;;;;5033720;28;20041;-61
2022/03/22 02:48:42;;;;;;;17.13;12.27;;;;;;;;;;5032671;28;20025;-62
2022/03/22 02:51:27;;;;;;;18.23;12.35;;;;;;;;;;5033992;28;20029;-62
2022/03/22 02:54:12;;;;;;;20.05;14.02;;;;;;;;;;5030566;28;20036;-68
2022/03/22 02:56:57;;;;;;;22.58;13.70;;;;;;;;;;5043838;28;20507;-61
2022/03/22 02:59:43;;;;;;;18.80;13.13;;;;;;;;;;5031616;28;20448;-60
2022/03/22 03:02:28;;;;;;;17.92;11.93;;;;;;;;;;5037608;28;20092;-61
2022/03/22 03:05:13;;;;;;;18.77;11.82;;;;;;;;;;5049117;28;20063;-61
2022/03/22 03:07:59;;;;;;;23.63;14.95;;;;;;;;;;5030275;28;20353;-60
2022/03/22 03:10:45;;;;;;;20.33;13.52;;;;;;;;;;5038827;28;20045;-61
2022/03/22 03:14:38;;;;;;;20.38;13.10;;;;;;;;;;5032374;28;20080;-59
2022/03/22 03:16:36;;;;;;;22.15;12.75;;;;;;;;;;5046266;28;20112;-62
2022/03/22 03:19:21;;;;;;;22.05;12.80;;;;;;;;;;5027780;28;20052;-62
2022/03/22 03:22:06;;;;;;;18.67;13.00;;;;;;;;;;5032408;28;20051;-62
2022/03/22 03:24:52;;;;;;;20.23;13.48;;;;;;;;;;5028110;28;20110;-64
2022/03/22 03:27:37;;;;;;;21.27;13.70;;;;;;;;;;5030213;28;20033;-63
2022/03/22 03:30:22;;;;;;;19.38;13.63;;;;;;;;;;5032055;28;20057;-65
2022/03/22 03:33:07;;;;;;;20.90;12.48;;;;;;;;;;5030331;28;20033;-58
2022/03/22 03:35:53;;;;;;;22.23;12.93;;;;;;;;;;5040448;28;20033;-62
2022/03/22 03:38:41;;;;;;;18.13;12.45;;;;;;;;;;5029895;28;20044;-62
2022/03/22 03:47:37;;;;;;;18.98;11.65;;;;;;;;;;5030626;28;20029;-65
2022/03/22 03:50:22;;;;;;;20.95;12.15;;;;;;;;;;5030784;28;20039;-60
2022/03/22 03:53:07;;;;;;;18.05;11.98;;;;;;;;;;5032069;28;20033;-62
2022/03/22 03:55:52;;;;;;;19.20;13.48;;;;;;;;;;5024554;28;20384;-61
2022/03/22 03:58:37;;;;;;;19.92;12.63;;;;;;;;;;5031267;28;20094;-61
2022/03/22 04:01:23;;;;;;;23.00;13.25;;;;;;;;;;5029619;28;20075;-61
2022/03/22 04:04:08;;;;;;;21.48;14.05;;;;;;;;;;5030716;28;20048;-60
2022/03/22 04:06:54;;;;;;;18.42;13.00;;;;;;;;;;5036775;28;20371;-61
2022/03/22 04:09:39;;;;;;;19.92;13.60;;;;;;;;;;5033264;28;20080;-60
2022/03/22 04:12:24;;;;;;;22.58;12.65;;;;;;;;;;5030058;28;20384;-60
2022/03/22 04:15:10;;;;;;;19.65;13.23;;;;;;;;;;5032551;28;20033;-58
2022/03/22 04:17:59;;;;;;;22.45;12.77;;;;;;;;;;5030950;28;20029;-59
2022/03/22 04:20:47;;;;;;;21.40;14.18;;;;;;;;;;5030823;28;20048;-58
2022/03/22 04:23:33;;;;;;;24.63;13.70;;;;;;;;;;5031944;28;20045;-60
2022/03/22 04:26:18;;;;;;;21.48;13.15;;;;;;;;;;5030852;28;20032;-61
2022/03/22 04:35:17;;;;;;;23.48;13.95;;;;;;;;;;5023761;28;20032;-65
2022/03/22 04:38:03;;;;;;;20.20;13.32;;;;;;;;;;5033407;28;20078;-64
2022/03/22 04:40:48;;;;;;;19.30;13.25;;;;;;;;;;5036255;28;20098;-64
2022/03/22 04:43:34;;;;;;;21.10;13.10;;;;;;;;;;5044695;28;20037;-64
2022/03/22 04:46:19;;;;;;;23.30;13.80;;;;;;;;;;5045100;28;20033;-61
2022/03/22 04:49:04;;;;;;;22.80;13.45;;;;;;;;;;5026695;28;20040;-60
2022/03/22 04:57:57;;;;;;;19.52;12.88;;;;;;;;;;5044058;28;20028;-59
2022/03/22 05:00:43;;;;;;;18.20;13.23;;;;;;;;;;5031573;28;20044;-58
2022/03/22 05:03:28;;;;;;;23.33;14.30;;;;;;;;;;5030050;28;20404;-60
2022/03/22 05:06:25;;;;;;;18.45;12.75;;;;;;;;;;5031314;28;20032;-62
2022/03/22 05:09:11;;;;;;;22.02;12.70;;;;;;;;;;5026635;28;20048;-61
2022/03/22 05:12:00;;;;;;;23.42;12.90;;;;;;;;;;5039560;28;20396;-60
2022/03/22 05:14:50;;;;;;;21.93;13.90;;;;;;;;;;5029839;28;20036;-60
2022/03/22 05:17:35;;;;;;;19.98;14.10;;;;;;;;;;5028110;28;20103;-60
2022/03/22 05:20:20;;;;;;;22.90;14.65;;;;;;;;;;5030097;28;20037;-60
2022/03/22 05:23:06;;;;;;;23.65;13.77;;;;;;;;;;5031282;28;20115;-61
2022/03/22 05:25:51;;;;;;;21.52;14.63;;;;;;;;;;5031048;28;20067;-66
2022/03/22 05:28:37;;;;;;;21.90;14.38;;;;;;;;;;5028586;28;20060;-66
2022/03/22 05:31:23;;;;;;;20.63;13.45;;;;;;;;;;5030539;28;20116;-65
2022/03/22 05:34:08;;;;;;;29.77;14.45;;;;;;;;;;5029970;28;20032;-65
2022/03/22 05:36:54;;;;;;;22.48;13.52;;;;;;;;;;5024075;28;20040;-64
2022/03/22 05:39:39;;;;;;;21.52;13.82;;;;;;;;;;5029988;28;20570;-63
2022/03/22 05:42:25;;;;;;;22.23;15.15;;;;;;;;;;5034624;28;20104;-66
2022/03/22 05:45:11;;;;;;;19.77;13.45;;;;;;;;;;5033482;28;20041;-60
2022/03/22 05:48:00;;;;;;;21.58;14.35;;;;;;;;;;5027453;28;20099;-62
2022/03/22 05:50:46;;;;;;;23.60;14.57;;;;;;;;;;5030632;28;20075;-63
2022/03/22 05:53:31;;;;;;;22.85;13.80;;;;;;;;;;5030527;28;20535;-61
2022/03/22 05:56:16;;;;;;;25.50;15.30;;;;;;;;;;5027073;28;20072;-62
2022/03/22 05:59:02;;;;;;;28.17;15.57;;;;;;;;;;5031587;28;20039;-64
2022/03/22 06:01:47;;;;;;;23.27;15.25;;;;;;;;;;5029915;28;20197;-61
2022/03/22 06:04:33;;;;;;;24.05;14.38;;;;;;;;;;5030656;28;20047;-60
2022/03/22 06:07:19;;;;;;;24.95;14.38;;;;;;;;;;5030896;28;20488;-61
2022/03/22 06:10:05;;;;;;;25.52;15.95;;;;;;;;;;5030930;28;20541;-62
2022/03/22 06:12:52;;;;;;;23.52;14.80;;;;;;;;;;5025071;28;20037;-61
2022/03/22 06:15:38;;;;;;;23.33;14.43;;;;;;;;;;5035114;28;20096;-61
2022/03/22 06:18:23;;;;;;;25.77;14.90;;;;;;;;;;5030045;28;20029;-60
2022/03/22 06:21:09;;;;;;;26.40;14.45;;;;;;;;;;5031565;28;20090;-62
2022/03/22 06:23:54;;;;;;;23.15;14.70;;;;;;;;;;5031071;28;20040;-63
2022/03/22 06:26:39;;;;;;;22.38;14.13;;;;;;;;;;5046246;28;20372;-63
2022/03/22 06:29:24;;;;;;;27.95;16.90;;;;;;;;;;5024460;28;20029;-62
2022/03/22 06:32:11;;;;;;;22.70;14.68;;;;;;;;;;5044075;28;20523;-61
2022/03/22 06:34:57;;;;;;;21.55;14.32;;;;;;;;;;5035356;28;20131;-62
2022/03/22 06:37:43;;;;;;;27.05;15.65;;;;;;;;;;5033595;28;20527;-60
2022/03/22 06:40:29;;;;;;;25.90;15.43;;;;;;;;;;5033857;28;20443;-61
2022/03/22 06:43:15;;;;;;;23.02;14.68;;;;;;;;;;5027033;28;20091;-61
2022/03/22 06:46:01;;;;;;;26.77;16.45;;;;;;;;;;5035512;28;20025;-60
2022/03/22 06:48:46;;;;;;;27.90;16.92;;;;;;;;;;5051861;28;20040;-59
2022/03/22 06:51:31;;;;;;;23.60;16.05;;;;;;;;;;5031576;28;20025;-59
2022/03/22 06:54:17;;;;;;;28.58;18.00;;;;;;;;;;5028510;28;20044;-64
2022/03/22 06:57:02;;;;;;;27.27;16.33;;;;;;;;;;5033167;28;20025;-64
2022/03/22 06:59:48;;;;;;;31.83;16.50;;;;;;;;;;5040675;28;20033;-58
2022/03/22 07:02:33;;;;;;;22.25;15.20;;;;;;;;;;5032071;28;20025;-57
2022/03/22 07:05:18;;;;;;;25.55;16.45;;;;;;;;;;5028793;28;20039;-59
2022/03/22 07:08:03;;;;;;;24.27;15.40;;;;;;;;;;5030296;28;20119;-58
2022/03/22 07:11:49;;;;;;;29.80;15.18;;;;;;;;;;5028198;28;20603;-60
2022/03/22 07:13:54;;;;;;;27.88;14.82;;;;;;;;;;5030928;28;20045;-59
2022/03/22 07:16:39;;;;;;;25.25;14.18;;;;;;;;;;5031927;28;20025;-71
2022/03/22 07:19:24;;;;;;;24.10;15.45;;;;;;;;;;5037599;28;20351;-65
2022/03/22 07:22:13;;;;;;;26.70;16.48;;;;;;;;;;5028694;28;20083;-74
2022/03/22 07:24:58;;;;;;;25.40;15.73;;;;;;;;;;5027050;28;20635;-79
2022/03/22 07:27:44;;;;;;;27.17;15.27;;;;;;;;;;5033337;28;20037;-76
2022/03/22 07:30:29;;;;;;;25.65;15.82;;;;;;;;;;5031045;28;20079;-64
2022/03/22 07:33:14;;;;;;;24.58;16.83;;;;;;;;;;5030222;28;20086;-62
2022/03/22 07:36:00;;;;;;;24.02;16.33;;;;;;;;;;5032076;28;20143;-64
2022/03/22 07:38:46;;;;;;;26.05;15.75;;;;;;;;;;5043229;28;20037;-68
2022/03/22 07:41:31;;;;;;;24.40;16.45;;;;;;;;;;5015433;28;20040;-70
2022/03/22 07:44:17;;;;;;;23.55;16.02;;;;;;;;;;5030320;28;20039;-70
2022/03/22 07:47:03;;;;;;;23.38;16.35;;;;;;;;;;5032921;28;20033;-64
2022/03/22 07:52:58;;;;;;;22.95;15.50;;;;;;;;;;5051289;28;20380;-61
2022/03/22 07:55:43;;;;;;;26.23;16.40;;;;;;;;;;5044674;28;20094;-61
2022/03/22 07:58:28;;;;;;;22.15;15.13;;;;;;;;;;5030918;28;20033;-62
2022/03/22 08:01:13;;;;;;;21.77;15.57;;;;;;;;;;5045269;28;20468;-62
2022/03/22 08:03:59;;;;;;;25.27;16.52;;;;;;;;;;5046884;28;20029;-60
2022/03/22 08:06:44;;;;;;;20.92;16.00;;;;;;;;;;5030240;28;20044;-61
2022/03/22 08:09:29;;;;;;;25.42;16.95;;;;;;;;;;5032122;28;20033;-59
2022/03/22 08:12:15;;;;;;;28.90;18.58;;;;;;;;;;5032683;28;20044;-64
2022/03/22 08:15:00;;;;;;;22.50;17.70;;;;;;;;;;5039362;28;20048;-63
2022/03/22 08:17:45;;;;;;;26.27;16.70;;;;;;;;;;5025403;28;20740;-63
2022/03/22 08:20:31;;;;;;;25.85;18.13;;;;;;;;;;5029639;28;20069;-63
2022/03/22 08:23:16;;;;;;;24.27;18.00;;;;;;;;;;5049723;28;20051;-62
2022/03/22 08:26:01;;;;;;;24.80;17.50;;;;;;;;;;5029597;28;20025;-63
2022/03/22 08:28:47;;;;;;;23.27;18.58;;;;;;;;;;5031428;28;20048;-60
2022/03/22 08:31:32;;;;;;;24.50;17.77;;;;;;;;;;5041192;28;21382;-62
2022/03/22 08:34:17;;;;;;;25.08;18.13;;;;;;;;;;5031575;28;20167;-61
2022/03/22 08:37:03;;;;;;;25.73;16.83;;;;;;;;;;5030284;28;20401;-62
2022/03/22 08:39:48;;;;;;;22.35;17.95;;;;;;;;;;5032328;28;20036;-62
2022/03/22 08:42:33;;;;;;;23.35;16.45;;;;;;;;;;5028955;28;20067;-62
2022/03/22 08:45:20;;;;;;;26.20;16.92;;;;;;;;;;5031768;28;20035;-60
2022/03/22 08:48:12;;;;;;;23.73;17.35;;;;;;;;;;5030261;28;20924;-61
2022/03/22 08:50:58;;;;;;;23.88;16.23;;;;;;;;;;5031063;28;20467;-60
2022/03/22 08:53:43;;;;;;;21.77;16.45;;;;;;;;;;5030746;28;20057;-59
2022/03/22 08:56:28;;;;;;;20.80;16.10;;;;;;;;;;5035590;28;20617;-61
2022/03/22 08:59:13;;;;;;;23.60;17.77;;;;;;;;;;5031636;28;20159;-59
2022/03/22 09:01:59;;;;;;;22.10;16.27;;;;;;;;;;5042042;28;20120;-59
2022/03/22 09:07:48;;;;;;;25.45;17.23;;;;;;;;;;5042697;28;20029;-66
2022/03/22 09:10:34;;;;;;;23.13;17.25;;;;;;;;;;5044560;28;20048;-63
2022/03/22 09:13:20;;;;;;;21.08;16.85;;;;;;;;;;5043816;28;20040;-64
2022/03/22 09:16:06;;;;;;;22.48;18.70;;;;;;;;;;5030541;28;20037;-63
2022/03/22 09:18:51;;;;;;;27.38;18.48;;;;;;;;;;5029529;28;20475;-62
2022/03/22 09:21:36;;;;;;;21.08;16.90;;;;;;;;;;5029488;28;20036;-60
2022/03/22 09:24:21;;;;;;;22.67;16.95;;;;;;;;;;5029809;28;20045;-60
2022/03/22 09:27:06;;;;;;;23.95;17.17;;;;;;;;;;5035545;28;20036;-59
2022/03/22 09:29:52;;;;;;;23.48;16.35;;;;;;;;;;5041685;28;20036;-60
2022/03/22 09:32:38;;;;;;;23.15;17.33;;;;;;;;;;5027733;28;20028;-62
2022/03/22 09:35:23;;;;;;;20.98;16.67;;;;;;;;;;5030241;28;20382;-59
2022/03/22 09:38:08;;;;;;;22.02;16.15;;;;;;;;;;5028088;28;20029;-61
2022/03/22 09:40:57;;;;;;;22.73;16.90;;;;;;;;;;5028910;28;20041;-64
2022/03/22 09:43:49;;;;;;;22.75;16.10;;;;;;;;;;5032464;28;20532;-59
2022/03/22 09:46:35;;;;;;;22.55;16.95;;;;;;;;;;5027492;28;20037;-58
2022/03/22 09:49:20;;;;;;;23.05;16.60;;;;;;;;;;5031097;28;20029;-63
2022/03/22 09:52:05;;;;;;;27.73;17.35;;;;;;;;;;5031188;28;20017;-61
2022/03/22 09:54:51;;;;;;;22.98;16.55;;;;;;;;;;5027463;28;20095;-59
2022/03/22 09:57:36;;;;;;;23.80;17.80;;;;;;;;;;5035183;28;20033;-60
2022/03/22 10:00:21;;;;;;;23.88;17.60;;;;;;;;;;5039770;28;20039;-63
2022/03/22 10:03:07;;;;;;;23.27;15.63;;;;;;;;;;5033005;28;20512;-67
2022/03/22 10:05:59;;;;;;;24.52;16.88;;;;;;;;;;5033815;28;20036;-65
2022/03/22 10:08:51;;;;;;;22.60;16.50;;;;;;;;;;5033851;28;20036;-63
2022/03/22 10:11:37;;;;;;;23.40;16.50;;;;;;;;;;5046758;28;20492;-65
2022/03/22 10:14:33;;;;;;;22.15;17.98;;;;;;;;;;5034428;28;20459;-65
2022/03/22 10:17:19;;;;;;;20.45;17.38;;;;;;;;;;5033460;28;20040;-60
2022/03/22 10:20:07;;;;;;;19.98;15.70;;;;;;;;;;5044248;28;20505;-61
2022/03/22 10:22:59;;;;;;;23.45;17.83;;;;;;;;;;5034453;28;20037;-61
2022/03/22 10:25:44;;;;;;;24.38;17.25;;;;;;;;;;5031499;28;20041;-61
2022/03/22 10:28:30;;;;;;;27.35;17.95;;;;;;;;;;5047516;28;20453;-61
2022/03/22 10:31:16;;;;;;;22.38;15.90;;;;;;;;;;5038738;28;20037;-59
2022/03/22 10:34:01;;;;;;;21.00;15.20;;;;;;;;;;5033339;28;20135;-60
2022/03/22 10:36:46;;;;;;;20.20;14.55;;;;;;;;;;5033438;28;20079;-61
2022/03/22 10:39:34;;;;;;;19.33;16.30;;;;;;;;;;5048353;28;20033;-62
2022/03/22 10:42:22;;;;;;;20.95;15.10;;;;;;;;;;5031876;28;20040;-63
2022/03/22 10:45:08;;;;;;;23.58;16.77;;;;;;;;;;5032407;28;20134;-61
2022/03/22 10:47:54;;;;;;;18.40;15.45;;;;;;;;;;5032145;28;20029;-61
2022/03/22 10:50:39;;;;;;;21.88;16.13;;;;;;;;;;5032301;28;20381;-62
2022/03/22 10:53:25;;;;;;;16.88;14.07;;;;;;;;;;5032991;28;20036;-61
2022/03/22 10:56:11;;;;;;;21.50;17.90;;;;;;;;;;5012541;28;20028;-62
2022/03/22 10:58:57;;;;;;;23.48;15.93;;;;;;;;;;5035757;28;20040;-61
2022/03/22 11:01:43;;;;;;;23.15;17.15;;;;;;;;;;5030601;28;20503;-61
2022/03/22 11:04:28;;;;;;;19.80;15.65;;;;;;;;;;5040162;28;20032;-62
2022/03/22 11:07:15;;;;;;;19.35;15.30;;;;;;;;;;5031749;28;20033;-60
2022/03/22 11:10:00;;;;;;;18.55;15.98;;;;;;;;;;5043520;28;20580;-60
2022/03/22 11:12:46;;;;;;;25.02;18.15;;;;;;;;;;5029468;28;20542;-66
2022/03/22 11:15:36;;;;;;;21.23;16.60;;;;;;;;;;5031603;28;20083;-57
2022/03/22 11:18:23;;;;;;;19.02;16.15;;;;;;;;;;5027131;28;20507;-60
2022/03/22 11:21:08;;;;;;;21.60;16.75;;;;;;;;;;5026775;28;20043;-61
2022/03/22 11:24:07;;;;;;;33.38;17.17;;;;;;;;;;5027528;28;20052;-60
2022/03/22 11:26:54;;;;;;;19.42;14.80;;;;;;;;;;5029994;28;20112;-60
2022/03/22 11:29:40;;;;;;;22.25;17.75;;;;;;;;;;5027235;28;20539;-61
2022/03/22 11:35:29;;;;;;;22.75;17.23;;;;;;;;;;5035280;28;20415;-59
2022/03/22 11:38:34;;;;;;;27.08;17.40;;;;;;;;;;5027259;28;20029;-61
2022/03/22 11:44:38;;;;;;;21.48;15.82;;;;;;;;;;5031003;28;20037;-60
2022/03/22 11:47:25;;;;;;;21.77;16.70;;;;;;;;;;5031366;28;20041;-59
2022/03/22 11:50:13;;;;;;;23.73;17.23;;;;;;;;;;5030673;28;20032;-64
2022/03/22 11:53:01;;;;;;;24.52;16.27;;;;;;;;;;5032628;28;20371;-65
2022/03/22 11:55:53;;;;;;;27.45;15.65;;;;;;;;;;5029633;28;20037;-63
2022/03/22 11:58:48;;;;;;;21.95;17.25;;;;;;;;;;5030666;28;20068;-64
2022/03/22 12:01:35;;;;;;;28.17;16.73;;;;;;;;;;5040056;28;20059;-67
2022/03/22 12:04:31;;;;;;;22.70;16.60;;;;;;;;;;5040510;28;20511;-68
2022/03/22 12:07:20;;;;;;;20.27;16.40;;;;;;;;;;5031251;28;20131;-63
2022/03/22 12:10:07;;;;;;;22.10;16.50;;;;;;;;;;5041994;28;20043;-61
2022/03/22 12:12:54;;;;;;;24.70;18.10;;;;;;;;;;5027974;28;20190;-61
2022/03/22 12:15:40;;;;;;;24.25;16.50;;;;;;;;;;5044683;28;20071;-61
2022/03/22 12:18:29;;;;;;;23.23;16.50;;;;;;;;;;5028060;28;20087;-61
2022/03/22 12:21:18;;;;;;;24.77;15.25;;;;;;;;;;5032323;28;20052;-60
2022/03/22 12:24:04;;;;;;;19.90;14.70;;;;;;;;;;5050119;28;20037;-63
2022/03/22 12:26:50;;;;;;;25.52;16.60;;;;;;;;;;5030992;28;20032;-63
2022/03/22 12:29:40;;;;;;;19.80;15.55;;;;;;;;;;5031831;28;20395;-61
2022/03/22 12:32:27;;;;;;;;;;;;;;;;;;5028544;28;20031;-63
2022/03/22 12:35:12;;;;;;;22.35;15.52;;;;;;;;;;5024857;28;20222;-62
2022/03/22 12:37:57;;;;;;;20.38;16.00;;;;;;;;;;5031972;28;20475;-66
2022/03/22 12:40:43;;;;;;;20.65;15.85;;;;;;;;;;5037115;28;20025;-66
2022/03/22 12:43:28;;;;;;;18.27;14.60;;;;;;;;;;5044264;28;20498;-63
2022/03/22 12:46:13;;;;;;;21.98;15.10;;;;;;;;;;5029999;28;20400;-61
2022/03/22 12:48:59;;;;;;;18.27;15.15;;;;;;;;;;5030092;28;20041;-63
2022/03/22 12:51:44;;;;;;;19.30;15.27;;;;;;;;;;5030122;28;20894;-60
2022/03/22 12:54:33;;;;;;;22.52;16.33;;;;;;;;;;5023930;28;20090;-61
2022/03/22 12:57:18;;;;;;;19.52;15.57;;;;;;;;;;5026668;28;20116;-62
2022/03/22 13:00:04;;;;;;;19.65;14.60;;;;;;;;;;5028843;28;20545;-63
2022/03/22 13:02:49;;;;;;;18.77;14.95;;;;;;;;;;5029305;28;20045;-64
2022/03/22 13:05:45;;;;;;;23.83;15.90;;;;;;;;;;5044603;28;20037;-61
2022/03/22 13:11:41;;;;;;;23.15;15.98;;;;;;;;;;5033052;28;20048;-61
2022/03/22 13:17:30;;;;;;;20.30;15.05;;;;;;;;;;5029262;28;20523;-59
2022/03/22 13:20:24;;;;;;;29.33;16.02;;;;;;;;;;5042450;28;20032;-61
2022/03/22 13:23:14;;;;;;;21.83;16.67;;;;;;;;;;5031080;28;20084;-63
2022/03/22 13:25:59;;;;;;;;;;;;;;;;;;5030521;28;20025;-62
2022/03/22 13:28:47;;;;;;;21.88;15.05;;;;;;;;;;5029115;28;19920;-62
2022/03/22 13:31:33;;;;;;;24.75;15.73;;;;;;;;;;5034142;28;20427;-62
2022/03/22 13:34:22;;;;;;;20.88;15.27;;;;;;;;;;5032842;28;20033;-62
2022/03/22 13:37:12;;;;;;;21.55;15.38;;;;;;;;;;5031651;28;20472;-60
2022/03/22 13:40:06;;;;;;;20.52;14.43;;;;;;;;;;5032410;28;20417;-76
2022/03/22 13:42:56;;;;;;;21.77;14.77;;;;;;;;;;5038401;28;20048;-60
2022/03/22 13:45:46;;;;;;;22.20;15.02;;;;;;;;;;5033224;28;20040;-62
2022/03/22 13:48:41;;;;;;;22.42;15.35;;;;;;;;;;5031663;28;20327;-61
2022/03/22 13:51:29;;;;;;;21.92;15.13;;;;;;;;;;5044777;28;20500;-60
2022/03/22 13:54:16;;;;;;;20.45;16.15;;;;;;;;;;5033512;28;20028;-60
2022/03/22 13:57:08;;;;;;;27.95;16.40;;;;;;;;;;5032850;28;20443;-59
2022/03/22 13:59:58;;;;;;;19.02;14.43;;;;;;;;;;5029594;28;20052;-74
2022/03/22 14:02:43;;;;;;;;;;;;;;;;;;5034786;28;20040;-76
2022/03/22 14:05:28;;;;;;;20.52;15.70;;;;;;;;;;5048360;28;20257;-77
2022/03/22 14:08:14;;;;;;;18.48;15.00;;;;;;;;;;5033060;28;20106;-74
2022/03/22 14:11:00;;;;;;;18.85;14.80;;;;;;;;;;5033134;28;20036;-71
2022/03/22 14:13:45;;;;;;;19.67;14.70;;;;;;;;;;5033803;28;20048;-70
2022/03/22 14:16:31;;;;;;;17.15;14.10;;;;;;;;;;5039663;28;20037;-59
2022/03/22 14:19:16;;;;;;;20.23;13.88;;;;;;;;;;5032239;28;20580;-72
2022/03/22 14:22:01;;;;;;;22.83;14.25;;;;;;;;;;5033757;28;20392;-69
2022/03/22 14:24:50;;;;;;;18.33;13.88;;;;;;;;;;5031166;28;20029;-67
2022/03/22 14:27:36;;;;;;;21.80;15.37;;;;;;;;;;5032815;28;20044;-69
2022/03/22 14:30:22;;;;;;;20.50;14.63;;;;;;;;;;5033060;28;20140;-71
2022/03/22 14:33:08;;;;;;;18.98;13.23;;;;;;;;;;5045695;28;20110;-66
2022/03/22 14:35:54;;;;;;;17.77;13.70;;;;;;;;;;5033000;28;20028;-63
2022/03/22 14:38:40;;;;;;;22.67;14.32;;;;;;;;;;5033054;28;20372;-76
2022/03/22 14:41:25;;;;;;;27.02;14.55;;;;;;;;;;5032438;28;20028;-78
2022/03/22 14:44:11;;;;;;;21.85;15.18;;;;;;;;;;5042447;28;20036;-75
2022/03/22 14:46:56;;;;;;;19.65;15.40;;;;;;;;;;5032440;28;20323;-62
2022/03/22 14:49:41;;;;;;;23.25;15.95;;;;;;;;;;5036090;28;20037;-67
2022/03/22 14:55:31;;;;;;;19.98;14.73;;;;;;;;;;5033036;28;20037;-63
2022/03/22 15:01:25;;;;;;;19.92;15.23;;;;;;;;;;5033007;28;20021;-62
2022/03/22 15:04:10;;;;;;;21.90;14.77;;;;;;;;;;5034131;28;20364;-61
2022/03/22 15:06:55;;;;;;;21.25;15.30;;;;;;;;;;5031659;28;20040;-60
2022/03/22 15:09:41;;;;;;;24.88;16.95;;;;;;;;;;5027479;28;20483;-62
2022/03/22 15:12:27;;;;;;;20.95;15.60;;;;;;;;;;5025625;28;20037;-66
2022/03/22 15:15:12;;;;;;;21.25;15.38;;;;;;;;;;5029776;28;20065;-61
2022/03/22 15:17:57;;;;;;;21.63;14.75;;;;;;;;;;5030577;28;20782;-58
2022/03/22 15:20:46;;;;;;;22.90;15.35;;;;;;;;;;5037370;28;20404;-62
2022/03/22 15:23:33;;;;;;;21.50;14.93;;;;;;;;;;5031341;28;20029;-63
2022/03/22 15:26:19;;;;;;;24.23;16.50;;;;;;;;;;5030978;28;20437;-59
2022/03/22 15:29:04;;;;;;;21.90;16.88;;;;;;;;;;5046723;28;20037;-63
2022/03/22 15:31:49;;;;;;;22.67;15.68;;;;;;;;;;5031987;28;20043;-60
2022/03/22 15:34:35;;;;;;;20.67;15.63;;;;;;;;;;5027785;28;20117;-63
2022/03/22 15:37:20;;;;;;;25.70;14.73;;;;;;;;;;5032755;28;20086;-62
2022/03/22 15:40:08;;;;;;;26.27;17.02;;;;;;;;;;5027126;28;20058;-62
2022/03/22 15:42:54;;;;;;;23.92;17.48;;;;;;;;;;5031482;28;20418;-60
2022/03/22 15:45:40;;;;;;;26.60;15.75;;;;;;;;;;5032066;28;20037;-62
2022/03/22 15:48:25;;;;;;;20.23;15.18;;;;;;;;;;5028008;28;20119;-66
2022/03/22 15:51:10;;;;;;;20.70;15.70;;;;;;;;;;5032438;28;20036;-59
2022/03/22 15:53:55;;;;;;;19.58;14.80;;;;;;;;;;5033657;28;20357;-59
2022/03/22 15:56:41;;;;;;;20.25;13.70;;;;;;;;;;5031963;28;20169;-59
2022/03/22 15:59:30;;;;;;;19.13;15.27;;;;;;;;;;5032496;28;20064;-61
2022/03/22 16:02:15;;;;;;;18.08;14.38;;;;;;;;;;5034720;28;20033;-61
2022/03/22 16:05:01;;;;;;;23.63;16.08;;;;;;;;;;5042876;28;20037;-59
2022/03/22 16:07:46;;;;;;;25.48;15.48;;;;;;;;;;5031945;28;20556;-60
2022/03/22 16:10:31;;;;;;;22.35;15.63;;;;;;;;;;5030848;28;20045;-61
2022/03/22 16:13:17;;;;;;;19.38;14.90;;;;;;;;;;5031413;28;20047;-62
2022/03/22 16:16:02;;;;;;;21.17;14.98;;;;;;;;;;5044001;28;20147;-59
2022/03/22 16:18:48;;;;;;;24.42;15.15;;;;;;;;;;5030319;28;20075;-60
2022/03/22 16:21:33;;;;;;;19.13;15.57;;;;;;;;;;5031126;28;20028;-58
2022/03/22 16:24:18;;;;;;;20.50;15.40;;;;;;;;;;5034903;28;20568;-68
2022/03/22 16:27:08;;;;;;;22.45;15.60;;;;;;;;;;5030141;28;20102;-58
2022/03/22 16:29:53;;;;;;;;;;;;;;;;;;5044720;28;20043;-59
2022/03/22 16:41:58;;;;;;;20.52;15.43;;;;;;;;;;5031033;28;20033;-60
2022/03/22 16:44:45;;;;;;;23.52;15.48;;;;;;;;;;5031159;28;20036;-65
2022/03/22 16:47:30;;;;;;;20.95;15.43;;;;;;;;;;5032328;28;20462;-64
2022/03/22 16:50:18;;;;;;;28.48;14.82;;;;;;;;;;5032195;28;20044;-61
2022/03/22 16:53:04;;;;;;;21.35;15.27;;;;;;;;;;5031404;28;20115;-61
2022/03/22 16:55:49;;;;;;;22.63;16.05;;;;;;;;;;5036007;28;20115;-59
2022/03/22 16:58:35;;;;;;;20.17;15.40;;;;;;;;;;5030696;28;20425;-61
2022/03/22 17:01:22;;;;;;;21.85;15.82;;;;;;;;;;5028610;28;20055;-68
2022/03/22 17:04:07;;;;;;;20.83;15.15;;;;;;;;;;5032208;28;20094;-67
2022/03/22 17:06:53;;;;;;;24.33;15.57;;;;;;;;;;5022430;28;20102;-60
2022/03/22 17:09:38;;;;;;;18.15;14.45;;;;;;;;;;5042189;28;20121;-64